sensor_id;sensor_type;location;lat;lon;timestamp;temperature;humidity
10873;DHT22;34586;53.616;10.032;2023-06-22T00:00:53;17.80;99.90
10873;DHT22;34586;53.616;10.032;2023-06-22T00:03:20;17.70;99.90
10873;DHT22;34586;53.616;10.032;2023-06-22T00:05:46;17.60;99.90
10873;DHT22;34586;53.616;10.032;2023-06-22T00:08:12;17.60;99.90
10873;DHT22;34586;53.616;10.032;2023-06-22T00:10:38;17.60;99.90
10873;DHT22;34586;53.616;10.032;2023-06-22T00:13:04;17.60;99.90
10873;DHT22;34586;53.616;10.032;2023-06-22T00:15:30;17.60;99.90
10873;DHT22;34586;53.616;10.032;2023-06-22T00:17:55;17.50;99.90
10873;DHT22;34586;53.616;10.032;2023-06-22T00:20:24;17.50;99.90
10873;DHT22;34586;53.616;10.032;2023-06-22T00:22:56;17.40;99.90
10873;DHT22;34586;53.616;10.032;2023-06-22T00:25:23;17.40;99.90
10873;DHT22;34586;53.616;10.032;2023-06-22T00:27:49;17.40;99.90
10873;DHT22;34586;53.616;10.032;2023-06-22T00:30:18;17.40;99.90
10873;DHT22;34586;53.616;10.032;2023-06-22T00:32:45;17.40;99.90
10873;DHT22;34586;53.616;10.032;2023-06-22T00:35:12;17.30;99.90
10873;DHT22;34586;53.616;10.032;2023-06-22T00:37:38;17.30;99.90
10873;DHT22;34586;53.616;10.032;2023-06-22T00:40:08;17.40;99.90
10873;DHT22;34586;53.616;10.032;2023-06-22T00:42:38;17.40;99.90
10873;DHT22;34586;53.616;10.032;2023-06-22T00:45:05;17.50;99.90
10873;DHT22;34586;53.616;10.032;2023-06-22T00:47:31;17.50;99.90
10873;DHT22;34586;53.616;10.032;2023-06-22T00:49:56;17.60;99.90
10873;DHT22;34586;53.616;10.032;2023-06-22T00:52:23;17.60;99.90
10873;DHT22;34586;53.616;10.032;2023-06-22T00:54:54;17.60;99.90
10873;DHT22;34586;53.616;10.032;2023-06-22T00:57:22;17.60;99.90
10873;DHT22;34586;53.616;10.032;2023-06-22T00:59:51;17.60;99.90
10873;DHT22;34586;53.616;10.032;2023-06-22T01:02:16;17.60;99.90
10873;DHT22;34586;53.616;10.032;2023-06-22T01:04:42;17.60;99.90
10873;DHT22;34586;53.616;10.032;2023-06-22T01:07:14;17.60;99.90
10873;DHT22;34586;53.616;10.032;2023-06-22T01:10:05;17.60;99.90
10873;DHT22;34586;53.616;10.032;2023-06-22T01:12:38;17.60;99.90
10873;DHT22;34586;53.616;10.032;2023-06-22T01:15:09;17.60;99.90
10873;DHT22;34586;53.616;10.032;2023-06-22T01:17:36;17.60;99.90
10873;DHT22;34586;53.616;10.032;2023-06-22T01:20:05;17.60;99.90
10873;DHT22;34586;53.616;10.032;2023-06-22T01:22:33;17.50;99.90
10873;DHT22;34586;53.616;10.032;2023-06-22T01:25:13;17.50;99.90
10873;DHT22;34586;53.616;10.032;2023-06-22T01:30:37;17.50;99.90
10873;DHT22;34586;53.616;10.032;2023-06-22T01:33:05;17.50;99.90
10873;DHT22;34586;53.616;10.032;2023-06-22T01:35:31;17.50;99.90
10873;DHT22;34586;53.616;10.032;2023-06-22T01:37:58;17.50;99.90
10873;DHT22;34586;53.616;10.032;2023-06-22T01:40:24;17.50;99.90
10873;DHT22;34586;53.616;10.032;2023-06-22T01:42:50;17.50;99.90
10873;DHT22;34586;53.616;10.032;2023-06-22T01:45:16;17.40;99.90
10873;DHT22;34586;53.616;10.032;2023-06-22T01:47:43;17.40;99.90
10873;DHT22;34586;53.616;10.032;2023-06-22T01:50:09;17.40;99.90
10873;DHT22;34586;53.616;10.032;2023-06-22T01:52:34;17.30;99.90
10873;DHT22;34586;53.616;10.032;2023-06-22T01:55:01;17.30;99.90
10873;DHT22;34586;53.616;10.032;2023-06-22T01:57:27;17.20;99.90
10873;DHT22;34586;53.616;10.032;2023-06-22T02:00:00;17.20;99.90
10873;DHT22;34586;53.616;10.032;2023-06-22T02:02:31;17.20;99.90
10873;DHT22;34586;53.616;10.032;2023-06-22T02:05:09;17.20;99.90
10873;DHT22;34586;53.616;10.032;2023-06-22T02:07:46;17.20;99.90
10873;DHT22;34586;53.616;10.032;2023-06-22T02:10:14;17.20;99.90
10873;DHT22;34586;53.616;10.032;2023-06-22T02:12:42;17.20;99.90
10873;DHT22;34586;53.616;10.032;2023-06-22T02:15:10;17.20;99.90
10873;DHT22;34586;53.616;10.032;2023-06-22T02:17:36;17.10;99.90
10873;DHT22;34586;53.616;10.032;2023-06-22T02:20:05;17.10;99.90
10873;DHT22;34586;53.616;10.032;2023-06-22T02:22:33;17.10;99.90
10873;DHT22;34586;53.616;10.032;2023-06-22T02:24:58;17.10;99.90
10873;DHT22;34586;53.616;10.032;2023-06-22T02:27:24;17.00;99.90
10873;DHT22;34586;53.616;10.032;2023-06-22T02:29:49;17.00;99.90
10873;DHT22;34586;53.616;10.032;2023-06-22T02:32:15;17.00;99.90
10873;DHT22;34586;53.616;10.032;2023-06-22T02:34:42;17.00;99.90
10873;DHT22;34586;53.616;10.032;2023-06-22T02:37:15;17.00;99.90
10873;DHT22;34586;53.616;10.032;2023-06-22T02:39:41;17.00;99.90
10873;DHT22;34586;53.616;10.032;2023-06-22T02:42:07;17.00;99.90
10873;DHT22;34586;53.616;10.032;2023-06-22T02:44:32;17.00;99.90
10873;DHT22;34586;53.616;10.032;2023-06-22T02:46:58;16.90;99.90
10873;DHT22;34586;53.616;10.032;2023-06-22T02:49:23;16.90;99.90
10873;DHT22;34586;53.616;10.032;2023-06-22T02:51:49;16.80;99.90
10873;DHT22;34586;53.616;10.032;2023-06-22T02:54:15;16.80;99.90
10873;DHT22;34586;53.616;10.032;2023-06-22T02:56:42;16.70;99.90
10873;DHT22;34586;53.616;10.032;2023-06-22T02:59:09;16.70;99.90
10873;DHT22;34586;53.616;10.032;2023-06-22T03:01:35;16.70;99.90
10873;DHT22;34586;53.616;10.032;2023-06-22T03:04:05;16.70;99.90
10873;DHT22;34586;53.616;10.032;2023-06-22T03:06:31;16.60;99.90
10873;DHT22;34586;53.616;10.032;2023-06-22T03:09:00;16.60;99.90
10873;DHT22;34586;53.616;10.032;2023-06-22T03:11:26;16.60;99.90
10873;DHT22;34586;53.616;10.032;2023-06-22T03:13:51;16.50;99.90
10873;DHT22;34586;53.616;10.032;2023-06-22T03:16:18;16.60;99.90
10873;DHT22;34586;53.616;10.032;2023-06-22T03:18:44;16.50;99.90
10873;DHT22;34586;53.616;10.032;2023-06-22T03:21:10;16.50;99.90
10873;DHT22;34586;53.616;10.032;2023-06-22T03:23:35;16.50;99.90
10873;DHT22;34586;53.616;10.032;2023-06-22T03:26:01;16.50;99.90
10873;DHT22;34586;53.616;10.032;2023-06-22T03:28:27;16.50;99.90
10873;DHT22;34586;53.616;10.032;2023-06-22T03:30:53;16.50;99.90
10873;DHT22;34586;53.616;10.032;2023-06-22T03:33:18;16.50;99.90
10873;DHT22;34586;53.616;10.032;2023-06-22T03:35:44;16.60;99.90
10873;DHT22;34586;53.616;10.032;2023-06-22T03:38:09;16.50;99.90
10873;DHT22;34586;53.616;10.032;2023-06-22T03:40:35;16.50;99.90
10873;DHT22;34586;53.616;10.032;2023-06-22T03:43:00;16.60;99.90
10873;DHT22;34586;53.616;10.032;2023-06-22T03:45:26;16.50;99.90
10873;DHT22;34586;53.616;10.032;2023-06-22T03:47:51;16.60;99.90
10873;DHT22;34586;53.616;10.032;2023-06-22T03:50:17;16.70;99.90
10873;DHT22;34586;53.616;10.032;2023-06-22T03:52:46;16.70;99.90
10873;DHT22;34586;53.616;10.032;2023-06-22T03:55:11;16.80;99.90
10873;DHT22;34586;53.616;10.032;2023-06-22T03:57:37;16.90;99.90
10873;DHT22;34586;53.616;10.032;2023-06-22T04:00:03;16.90;99.90
10873;DHT22;34586;53.616;10.032;2023-06-22T04:02:31;17.00;99.90
10873;DHT22;34586;53.616;10.032;2023-06-22T04:04:57;17.10;99.90
10873;DHT22;34586;53.616;10.032;2023-06-22T04:07:22;17.20;99.90
10873;DHT22;34586;53.616;10.032;2023-06-22T04:09:48;17.30;99.90
10873;DHT22;34586;53.616;10.032;2023-06-22T04:12:13;17.40;99.90
10873;DHT22;34586;53.616;10.032;2023-06-22T04:14:39;17.30;99.90
10873;DHT22;34586;53.616;10.032;2023-06-22T04:17:05;17.50;99.90
10873;DHT22;34586;53.616;10.032;2023-06-22T04:19:30;17.50;99.90
10873;DHT22;34586;53.616;10.032;2023-06-22T04:21:56;17.60;99.90
10873;DHT22;34586;53.616;10.032;2023-06-22T04:24:22;17.70;99.90
10873;DHT22;34586;53.616;10.032;2023-06-22T04:26:47;17.70;99.90
10873;DHT22;34586;53.616;10.032;2023-06-22T04:29:13;17.70;99.90
10873;DHT22;34586;53.616;10.032;2023-06-22T04:31:39;17.80;99.90
10873;DHT22;34586;53.616;10.032;2023-06-22T04:34:06;17.80;99.90
10873;DHT22;34586;53.616;10.032;2023-06-22T04:36:38;17.80;99.90
10873;DHT22;34586;53.616;10.032;2023-06-22T04:39:09;17.90;99.90
10873;DHT22;34586;53.616;10.032;2023-06-22T04:41:44;17.90;99.90
10873;DHT22;34586;53.616;10.032;2023-06-22T04:44:10;17.90;99.90
10873;DHT22;34586;53.616;10.032;2023-06-22T04:46:39;18.00;99.90
10873;DHT22;34586;53.616;10.032;2023-06-22T04:49:07;18.10;99.90
10873;DHT22;34586;53.616;10.032;2023-06-22T04:51:39;18.10;99.90
10873;DHT22;34586;53.616;10.032;2023-06-22T04:54:05;18.10;99.90
10873;DHT22;34586;53.616;10.032;2023-06-22T04:56:32;18.20;99.90
10873;DHT22;34586;53.616;10.032;2023-06-22T04:58:57;18.20;99.90
10873;DHT22;34586;53.616;10.032;2023-06-22T05:01:23;18.40;99.90
10873;DHT22;34586;53.616;10.032;2023-06-22T05:03:49;18.30;99.90
10873;DHT22;34586;53.616;10.032;2023-06-22T05:06:15;18.40;99.90
10873;DHT22;34586;53.616;10.032;2023-06-22T05:08:41;18.40;99.90
10873;DHT22;34586;53.616;10.032;2023-06-22T05:11:06;18.40;99.90
10873;DHT22;34586;53.616;10.032;2023-06-22T05:13:32;18.40;99.90
10873;DHT22;34586;53.616;10.032;2023-06-22T05:15:58;18.50;99.90
10873;DHT22;34586;53.616;10.032;2023-06-22T05:18:30;18.60;99.90
10873;DHT22;34586;53.616;10.032;2023-06-22T05:20:58;18.60;99.90
10873;DHT22;34586;53.616;10.032;2023-06-22T05:23:24;18.70;99.90
10873;DHT22;34586;53.616;10.032;2023-06-22T05:25:50;18.80;99.90
10873;DHT22;34586;53.616;10.032;2023-06-22T05:28:16;18.90;99.90
10873;DHT22;34586;53.616;10.032;2023-06-22T05:30:41;18.90;99.90
10873;DHT22;34586;53.616;10.032;2023-06-22T05:33:07;19.00;99.90
10873;DHT22;34586;53.616;10.032;2023-06-22T05:35:32;19.10;99.90
10873;DHT22;34586;53.616;10.032;2023-06-22T05:37:58;19.20;99.90
10873;DHT22;34586;53.616;10.032;2023-06-22T05:40:24;19.20;99.90
10873;DHT22;34586;53.616;10.032;2023-06-22T05:42:49;19.30;90.80
10873;DHT22;34586;53.616;10.032;2023-06-22T05:45:15;19.40;1.00
10873;DHT22;34586;53.616;10.032;2023-06-22T05:47:40;19.50;8.60
10873;DHT22;34586;53.616;10.032;2023-06-22T05:50:06;19.50;1.00
10873;DHT22;34586;53.616;10.032;2023-06-22T05:52:34;19.50;1.00
10873;DHT22;34586;53.616;10.032;2023-06-22T05:54:59;19.60;1.00
10873;DHT22;34586;53.616;10.032;2023-06-22T05:57:25;19.60;1.00
10873;DHT22;34586;53.616;10.032;2023-06-22T05:59:50;19.70;1.00
10873;DHT22;34586;53.616;10.032;2023-06-22T06:02:17;19.80;1.00
10873;DHT22;34586;53.616;10.032;2023-06-22T06:04:42;20.00;1.00
10873;DHT22;34586;53.616;10.032;2023-06-22T06:07:08;20.00;99.90
10873;DHT22;34586;53.616;10.032;2023-06-22T06:09:34;20.10;99.90
10873;DHT22;34586;53.616;10.032;2023-06-22T06:11:59;20.20;99.90
10873;DHT22;34586;53.616;10.032;2023-06-22T06:14:25;20.20;99.90
10873;DHT22;34586;53.616;10.032;2023-06-22T06:16:50;20.30;99.90
10873;DHT22;34586;53.616;10.032;2023-06-22T06:19:16;20.30;99.90
10873;DHT22;34586;53.616;10.032;2023-06-22T06:21:41;20.40;99.90
10873;DHT22;34586;53.616;10.032;2023-06-22T06:24:07;20.50;99.90
10873;DHT22;34586;53.616;10.032;2023-06-22T06:26:32;20.60;99.90
10873;DHT22;34586;53.616;10.032;2023-06-22T06:29:00;20.70;99.90
10873;DHT22;34586;53.616;10.032;2023-06-22T06:31:26;20.70;99.90
10873;DHT22;34586;53.616;10.032;2023-06-22T06:33:55;20.80;99.90
10873;DHT22;34586;53.616;10.032;2023-06-22T06:36:20;21.00;99.90
10873;DHT22;34586;53.616;10.032;2023-06-22T06:38:46;21.10;99.90
10873;DHT22;34586;53.616;10.032;2023-06-22T06:41:16;21.00;92.00
10873;DHT22;34586;53.616;10.032;2023-06-22T06:43:42;21.00;99.90
10873;DHT22;34586;53.616;10.032;2023-06-22T06:46:11;20.90;99.90
10873;DHT22;34586;53.616;10.032;2023-06-22T06:48:36;20.80;99.90
10873;DHT22;34586;53.616;10.032;2023-06-22T06:51:02;20.80;99.90
10873;DHT22;34586;53.616;10.032;2023-06-22T06:53:28;20.70;99.90
10873;DHT22;34586;53.616;10.032;2023-06-22T06:55:54;20.70;99.90
10873;DHT22;34586;53.616;10.032;2023-06-22T06:58:20;20.70;99.90
10873;DHT22;34586;53.616;10.032;2023-06-22T07:00:45;20.60;99.90
10873;DHT22;34586;53.616;10.032;2023-06-22T07:03:11;20.60;99.90
10873;DHT22;34586;53.616;10.032;2023-06-22T07:05:36;20.60;99.90
10873;DHT22;34586;53.616;10.032;2023-06-22T07:08:02;20.50;99.90
10873;DHT22;34586;53.616;10.032;2023-06-22T07:10:28;20.60;99.90
10873;DHT22;34586;53.616;10.032;2023-06-22T07:12:54;20.60;99.90
10873;DHT22;34586;53.616;10.032;2023-06-22T07:15:20;20.70;99.90
10873;DHT22;34586;53.616;10.032;2023-06-22T07:17:45;20.70;99.90
10873;DHT22;34586;53.616;10.032;2023-06-22T07:20:11;20.70;99.90
10873;DHT22;34586;53.616;10.032;2023-06-22T07:22:46;20.90;99.90
10873;DHT22;34586;53.616;10.032;2023-06-22T07:25:12;21.00;99.90
10873;DHT22;34586;53.616;10.032;2023-06-22T07:28:11;21.10;99.40
10873;DHT22;34586;53.616;10.032;2023-06-22T07:30:36;21.30;99.90
10873;DHT22;34586;53.616;10.032;2023-06-22T07:33:02;21.30;99.90
10873;DHT22;34586;53.616;10.032;2023-06-22T07:35:32;21.50;99.90
10873;DHT22;34586;53.616;10.032;2023-06-22T07:37:57;21.50;99.90
10873;DHT22;34586;53.616;10.032;2023-06-22T07:40:23;21.80;99.90
10873;DHT22;34586;53.616;10.032;2023-06-22T07:42:49;21.90;99.90
10873;DHT22;34586;53.616;10.032;2023-06-22T07:45:17;22.10;1.00
10873;DHT22;34586;53.616;10.032;2023-06-22T07:47:42;22.20;17.90
10873;DHT22;34586;53.616;10.032;2023-06-22T07:50:08;22.40;1.00
10873;DHT22;34586;53.616;10.032;2023-06-22T07:52:34;22.40;91.60
10873;DHT22;34586;53.616;10.032;2023-06-22T07:55:00;22.60;1.00
10873;DHT22;34586;53.616;10.032;2023-06-22T07:57:26;22.70;1.00
10873;DHT22;34586;53.616;10.032;2023-06-22T07:59:58;22.90;1.00
10873;DHT22;34586;53.616;10.032;2023-06-22T08:02:24;22.90;1.00
10873;DHT22;34586;53.616;10.032;2023-06-22T08:04:49;23.10;1.00
10873;DHT22;34586;53.616;10.032;2023-06-22T08:07:15;23.10;1.00
10873;DHT22;34586;53.616;10.032;2023-06-22T08:09:46;23.20;1.00
10873;DHT22;34586;53.616;10.032;2023-06-22T08:12:12;23.20;1.00
10873;DHT22;34586;53.616;10.032;2023-06-22T08:14:38;23.00;1.00
10873;DHT22;34586;53.616;10.032;2023-06-22T08:17:04;23.10;1.00
10873;DHT22;34586;53.616;10.032;2023-06-22T08:19:30;23.10;1.00
10873;DHT22;34586;53.616;10.032;2023-06-22T08:21:56;23.10;1.00
10873;DHT22;34586;53.616;10.032;2023-06-22T08:24:22;23.10;1.00
10873;DHT22;34586;53.616;10.032;2023-06-22T08:26:50;23.20;1.00
10873;DHT22;34586;53.616;10.032;2023-06-22T08:29:16;23.10;99.90
10873;DHT22;34586;53.616;10.032;2023-06-22T08:31:42;23.10;99.90
10873;DHT22;34586;53.616;10.032;2023-06-22T08:34:07;23.00;1.00
10873;DHT22;34586;53.616;10.032;2023-06-22T08:36:33;22.90;1.00
10873;DHT22;34586;53.616;10.032;2023-06-22T08:39:03;22.90;1.00
10873;DHT22;34586;53.616;10.032;2023-06-22T08:41:29;22.80;99.90
10873;DHT22;34586;53.616;10.032;2023-06-22T08:43:55;22.80;1.00
10873;DHT22;34586;53.616;10.032;2023-06-22T08:46:21;23.00;1.00
10873;DHT22;34586;53.616;10.032;2023-06-22T08:48:49;23.10;99.90
10873;DHT22;34586;53.616;10.032;2023-06-22T08:51:16;23.00;1.00
10873;DHT22;34586;53.616;10.032;2023-06-22T08:53:42;23.00;99.90
10873;DHT22;34586;53.616;10.032;2023-06-22T08:56:08;23.20;1.00
10873;DHT22;34586;53.616;10.032;2023-06-22T08:58:34;23.30;99.90
10873;DHT22;34586;53.616;10.032;2023-06-22T09:00:59;23.30;1.00
10873;DHT22;34586;53.616;10.032;2023-06-22T09:03:26;23.40;99.90
10873;DHT22;34586;53.616;10.032;2023-06-22T09:05:52;23.50;1.00
10873;DHT22;34586;53.616;10.032;2023-06-22T09:08:18;23.60;99.90
10873;DHT22;34586;53.616;10.032;2023-06-22T09:10:43;23.60;99.90
10873;DHT22;34586;53.616;10.032;2023-06-22T09:13:09;23.60;40.60
10873;DHT22;34586;53.616;10.032;2023-06-22T09:15:35;23.60;99.90
10873;DHT22;34586;53.616;10.032;2023-06-22T09:18:00;23.70;99.90
10873;DHT22;34586;53.616;10.032;2023-06-22T09:20:26;23.60;99.90
10873;DHT22;34586;53.616;10.032;2023-06-22T09:22:52;23.60;99.90
10873;DHT22;34586;53.616;10.032;2023-06-22T09:25:17;23.60;1.00
10873;DHT22;34586;53.616;10.032;2023-06-22T09:27:46;23.80;1.00
10873;DHT22;34586;53.616;10.032;2023-06-22T09:30:12;23.90;1.00
10873;DHT22;34586;53.616;10.032;2023-06-22T09:32:37;24.00;1.00
10873;DHT22;34586;53.616;10.032;2023-06-22T09:35:05;24.00;1.00
10873;DHT22;34586;53.616;10.032;2023-06-22T09:37:34;24.10;1.00
10873;DHT22;34586;53.616;10.032;2023-06-22T09:40:00;24.10;1.00
10873;DHT22;34586;53.616;10.032;2023-06-22T09:42:25;24.20;1.00
10873;DHT22;34586;53.616;10.032;2023-06-22T09:44:51;24.20;1.00
10873;DHT22;34586;53.616;10.032;2023-06-22T09:47:17;24.30;99.90
10873;DHT22;34586;53.616;10.032;2023-06-22T09:49:42;24.20;99.90
10873;DHT22;34586;53.616;10.032;2023-06-22T09:52:08;24.20;99.90
10873;DHT22;34586;53.616;10.032;2023-06-22T09:54:33;24.30;1.00
10873;DHT22;34586;53.616;10.032;2023-06-22T09:56:59;24.40;99.90
10873;DHT22;34586;53.616;10.032;2023-06-22T09:59:25;24.60;99.90
10873;DHT22;34586;53.616;10.032;2023-06-22T10:01:50;24.80;99.90
10873;DHT22;34586;53.616;10.032;2023-06-22T10:04:16;24.90;99.90
10873;DHT22;34586;53.616;10.032;2023-06-22T10:06:41;25.00;99.90
10873;DHT22;34586;53.616;10.032;2023-06-22T10:09:08;25.30;99.90
10873;DHT22;34586;53.616;10.032;2023-06-22T10:11:33;25.40;99.90
10873;DHT22;34586;53.616;10.032;2023-06-22T10:14:01;25.60;1.00
10873;DHT22;34586;53.616;10.032;2023-06-22T10:16:33;25.80;1.00
10873;DHT22;34586;53.616;10.032;2023-06-22T10:18:59;26.00;1.00
10873;DHT22;34586;53.616;10.032;2023-06-22T10:21:24;25.80;86.60
10873;DHT22;34586;53.616;10.032;2023-06-22T10:23:52;25.80;99.90
10873;DHT22;34586;53.616;10.032;2023-06-22T10:26:18;25.80;99.90
10873;DHT22;34586;53.616;10.032;2023-06-22T10:28:43;25.90;99.90
10873;DHT22;34586;53.616;10.032;2023-06-22T10:31:09;26.00;1.00
10873;DHT22;34586;53.616;10.032;2023-06-22T10:33:34;26.00;1.00
10873;DHT22;34586;53.616;10.032;2023-06-22T10:36:00;26.00;1.00
10873;DHT22;34586;53.616;10.032;2023-06-22T10:38:25;26.00;1.00
10873;DHT22;34586;53.616;10.032;2023-06-22T10:40:51;26.00;99.90
10873;DHT22;34586;53.616;10.032;2023-06-22T10:43:17;26.10;1.00
10873;DHT22;34586;53.616;10.032;2023-06-22T10:45:42;26.20;1.00
10873;DHT22;34586;53.616;10.032;2023-06-22T10:48:08;26.20;1.00
10873;DHT22;34586;53.616;10.032;2023-06-22T10:50:33;26.30;1.00
10873;DHT22;34586;53.616;10.032;2023-06-22T10:52:59;26.40;1.00
10873;DHT22;34586;53.616;10.032;2023-06-22T10:55:25;26.50;1.00
10873;DHT22;34586;53.616;10.032;2023-06-22T10:57:50;26.60;1.00
10873;DHT22;34586;53.616;10.032;2023-06-22T11:00:17;26.70;1.00
10873;DHT22;34586;53.616;10.032;2023-06-22T11:02:43;26.90;1.00
10873;DHT22;34586;53.616;10.032;2023-06-22T11:05:09;27.00;1.00
10873;DHT22;34586;53.616;10.032;2023-06-22T11:07:34;27.00;1.00
10873;DHT22;34586;53.616;10.032;2023-06-22T11:10:00;26.90;1.00
10873;DHT22;34586;53.616;10.032;2023-06-22T11:12:26;26.90;1.00
10873;DHT22;34586;53.616;10.032;2023-06-22T11:14:51;27.10;1.00
10873;DHT22;34586;53.616;10.032;2023-06-22T11:17:17;27.10;99.90
10873;DHT22;34586;53.616;10.032;2023-06-22T11:19:44;27.30;99.90
10873;DHT22;34586;53.616;10.032;2023-06-22T11:22:10;27.40;99.90
10873;DHT22;34586;53.616;10.032;2023-06-22T11:24:36;27.40;99.90
10873;DHT22;34586;53.616;10.032;2023-06-22T11:27:01;27.50;99.90
10873;DHT22;34586;53.616;10.032;2023-06-22T11:29:27;27.60;99.90
10873;DHT22;34586;53.616;10.032;2023-06-22T11:31:52;27.70;99.90
10873;DHT22;34586;53.616;10.032;2023-06-22T11:34:18;27.80;99.90
10873;DHT22;34586;53.616;10.032;2023-06-22T11:36:44;27.80;99.90
10873;DHT22;34586;53.616;10.032;2023-06-22T11:39:10;27.70;99.90
10873;DHT22;34586;53.616;10.032;2023-06-22T11:41:37;27.60;99.90
10873;DHT22;34586;53.616;10.032;2023-06-22T11:44:02;27.50;99.90
10873;DHT22;34586;53.616;10.032;2023-06-22T11:46:29;27.40;99.90
10873;DHT22;34586;53.616;10.032;2023-06-22T11:48:55;27.70;99.90
10873;DHT22;34586;53.616;10.032;2023-06-22T11:51:21;28.20;99.90
10873;DHT22;34586;53.616;10.032;2023-06-22T11:53:46;28.30;99.90
10873;DHT22;34586;53.616;10.032;2023-06-22T11:56:12;28.80;99.90
10873;DHT22;34586;53.616;10.032;2023-06-22T11:58:37;28.90;99.90
10873;DHT22;34586;53.616;10.032;2023-06-22T12:01:03;28.90;99.90
10873;DHT22;34586;53.616;10.032;2023-06-22T12:03:29;29.00;99.90
10873;DHT22;34586;53.616;10.032;2023-06-22T12:05:55;29.10;99.90
10873;DHT22;34586;53.616;10.032;2023-06-22T12:08:21;29.10;99.90
10873;DHT22;34586;53.616;10.032;2023-06-22T12:10:49;29.30;99.90
10873;DHT22;34586;53.616;10.032;2023-06-22T12:13:15;29.30;99.90
10873;DHT22;34586;53.616;10.032;2023-06-22T12:15:41;29.10;99.90
10873;DHT22;34586;53.616;10.032;2023-06-22T12:18:06;29.30;99.90
10873;DHT22;34586;53.616;10.032;2023-06-22T12:20:32;29.20;99.90
10873;DHT22;34586;53.616;10.032;2023-06-22T12:22:58;29.00;99.90
10873;DHT22;34586;53.616;10.032;2023-06-22T12:25:24;28.60;99.90
10873;DHT22;34586;53.616;10.032;2023-06-22T12:27:50;28.50;99.90
10873;DHT22;34586;53.616;10.032;2023-06-22T12:30:16;28.90;99.90
10873;DHT22;34586;53.616;10.032;2023-06-22T12:32:42;28.90;99.90
10873;DHT22;34586;53.616;10.032;2023-06-22T12:35:07;28.90;99.90
10873;DHT22;34586;53.616;10.032;2023-06-22T12:37:42;28.50;99.90
10873;DHT22;34586;53.616;10.032;2023-06-22T12:40:08;29.00;99.90
10873;DHT22;34586;53.616;10.032;2023-06-22T12:42:34;29.90;99.90
10873;DHT22;34586;53.616;10.032;2023-06-22T12:45:00;30.00;99.90
10873;DHT22;34586;53.616;10.032;2023-06-22T12:47:26;29.70;99.90
10873;DHT22;34586;53.616;10.032;2023-06-22T12:49:51;29.50;99.90
10873;DHT22;34586;53.616;10.032;2023-06-22T12:52:17;29.70;99.90
10873;DHT22;34586;53.616;10.032;2023-06-22T12:54:42;29.60;99.90
10873;DHT22;34586;53.616;10.032;2023-06-22T12:57:08;29.50;99.90
10873;DHT22;34586;53.616;10.032;2023-06-22T12:59:34;29.50;99.90
10873;DHT22;34586;53.616;10.032;2023-06-22T13:01:59;30.00;99.90
10873;DHT22;34586;53.616;10.032;2023-06-22T13:04:25;30.30;99.90
10873;DHT22;34586;53.616;10.032;2023-06-22T13:06:50;30.80;99.90
10873;DHT22;34586;53.616;10.032;2023-06-22T13:09:19;31.50;99.90
10873;DHT22;34586;53.616;10.032;2023-06-22T13:11:45;32.20;99.90
10873;DHT22;34586;53.616;10.032;2023-06-22T13:14:11;32.30;99.90
10873;DHT22;34586;53.616;10.032;2023-06-22T13:16:36;32.60;99.90
10873;DHT22;34586;53.616;10.032;2023-06-22T13:19:02;32.10;99.90
10873;DHT22;34586;53.616;10.032;2023-06-22T13:21:28;31.80;99.90
10873;DHT22;34586;53.616;10.032;2023-06-22T13:23:54;31.80;99.90
10873;DHT22;34586;53.616;10.032;2023-06-22T13:26:21;31.60;99.90
10873;DHT22;34586;53.616;10.032;2023-06-22T13:28:47;31.60;99.90
10873;DHT22;34586;53.616;10.032;2023-06-22T13:31:13;31.20;99.90
10873;DHT22;34586;53.616;10.032;2023-06-22T13:33:38;30.80;99.90
10873;DHT22;34586;53.616;10.032;2023-06-22T13:36:06;30.20;99.90
10873;DHT22;34586;53.616;10.032;2023-06-22T13:38:32;29.70;99.90
10873;DHT22;34586;53.616;10.032;2023-06-22T13:40:58;29.20;99.90
10873;DHT22;34586;53.616;10.032;2023-06-22T13:43:26;29.00;99.90
10873;DHT22;34586;53.616;10.032;2023-06-22T13:45:52;28.80;99.90
10873;DHT22;34586;53.616;10.032;2023-06-22T13:48:17;28.50;99.90
10873;DHT22;34586;53.616;10.032;2023-06-22T13:50:43;28.30;99.90
10873;DHT22;34586;53.616;10.032;2023-06-22T13:53:09;28.20;99.90
10873;DHT22;34586;53.616;10.032;2023-06-22T13:55:35;28.00;99.90
10873;DHT22;34586;53.616;10.032;2023-06-22T13:58:00;28.00;99.90
10873;DHT22;34586;53.616;10.032;2023-06-22T14:00:26;28.10;99.90
10873;DHT22;34586;53.616;10.032;2023-06-22T14:02:53;28.20;99.90
10873;DHT22;34586;53.616;10.032;2023-06-22T14:05:19;28.40;99.90
10873;DHT22;34586;53.616;10.032;2023-06-22T14:07:45;28.50;99.90
10873;DHT22;34586;53.616;10.032;2023-06-22T14:10:10;28.70;99.90
10873;DHT22;34586;53.616;10.032;2023-06-22T14:12:36;29.20;99.90
10873;DHT22;34586;53.616;10.032;2023-06-22T14:15:02;29.40;99.90
10873;DHT22;34586;53.616;10.032;2023-06-22T14:17:28;29.20;99.90
10873;DHT22;34586;53.616;10.032;2023-06-22T14:19:53;28.90;99.90
10873;DHT22;34586;53.616;10.032;2023-06-22T14:22:20;28.60;99.90
10873;DHT22;34586;53.616;10.032;2023-06-22T14:24:47;28.40;99.90
10873;DHT22;34586;53.616;10.032;2023-06-22T14:27:12;28.30;99.90
10873;DHT22;34586;53.616;10.032;2023-06-22T14:29:38;28.30;99.90
10873;DHT22;34586;53.616;10.032;2023-06-22T14:32:04;28.30;99.90
10873;DHT22;34586;53.616;10.032;2023-06-22T14:34:32;28.10;99.90
10873;DHT22;34586;53.616;10.032;2023-06-22T14:36:58;28.10;99.90
10873;DHT22;34586;53.616;10.032;2023-06-22T14:39:23;28.10;99.90
10873;DHT22;34586;53.616;10.032;2023-06-22T14:41:49;28.10;99.90
10873;DHT22;34586;53.616;10.032;2023-06-22T14:44:15;28.10;99.90
10873;DHT22;34586;53.616;10.032;2023-06-22T14:46:40;28.00;99.90
10873;DHT22;34586;53.616;10.032;2023-06-22T14:49:06;27.80;99.90
10873;DHT22;34586;53.616;10.032;2023-06-22T14:51:32;27.60;99.90
10873;DHT22;34586;53.616;10.032;2023-06-22T14:53:57;27.30;1.00
10873;DHT22;34586;53.616;10.032;2023-06-22T14:56:23;27.20;17.10
10873;DHT22;34586;53.616;10.032;2023-06-22T14:58:48;26.90;1.00
10873;DHT22;34586;53.616;10.032;2023-06-22T15:01:17;26.80;1.00
10873;DHT22;34586;53.616;10.032;2023-06-22T15:03:42;26.70;1.00
10873;DHT22;34586;53.616;10.032;2023-06-22T15:06:09;26.50;38.40
10873;DHT22;34586;53.616;10.032;2023-06-22T15:08:36;26.50;99.90
10873;DHT22;34586;53.616;10.032;2023-06-22T15:11:02;26.50;99.90
10873;DHT22;34586;53.616;10.032;2023-06-22T15:13:27;26.50;99.90
10873;DHT22;34586;53.616;10.032;2023-06-22T15:15:53;26.50;99.90